Terminal Aerodrome Forecast
Issued by NWS Amarillo, TX

Home | Current Version | Previous Version | Text Only | Print | Product List | Glossary On
Versions: 1 2 3 4 5 6 7 8 9 10 11 12 13 14 15 16 17 18
000
FTUS44 KAMA 280115 AAB
TAFAMA
TAF AMD
KAMA 280115Z 2801/2824 04030G40KT P6SM SCT250
      TEMPO 2803/2806 VRB30G40KT 5SM TSRA BKN040CB
     FM280600 17008KT P6SM SCT250
     FM281700 15014KT P6SM SCT080=

USA.gov is the U.S. government's official web portal to all federal, state and local government web resources and services.